createdAt,value
2024-03-08T00:00:15.163Z,9.73
2024-03-08T00:03:04.459Z,7.93
2024-03-08T00:05:31.600Z,5.55
2024-03-08T00:07:59.070Z,8.02
2024-03-08T00:10:28.261Z,7.60
2024-03-08T00:12:56.053Z,6.85
2024-03-08T00:15:24.424Z,5.55
2024-03-08T00:17:52.031Z,6.78
2024-03-08T00:20:20.046Z,8.68
2024-03-08T00:22:47.984Z,5.85
2024-03-08T00:25:19.070Z,6.43
2024-03-08T00:27:46.716Z,9.18
2024-03-08T00:30:16.647Z,8.60
2024-03-08T00:32:44.368Z,8.55
2024-03-08T00:35:12.616Z,8.65
2024-03-08T00:37:40.176Z,8.07
2024-03-08T00:40:10.635Z,7.20
2024-03-08T00:42:39.750Z,7.30
2024-03-08T00:45:07.362Z,5.28
2024-03-08T00:47:34.876Z,6.63
2024-03-08T00:50:05.337Z,7.95
2024-03-08T00:52:33.005Z,8.15
2024-03-08T00:55:00.048Z,5.90
2024-03-08T00:57:27.496Z,5.93
2024-03-08T00:59:54.589Z,7.85
2024-03-08T01:02:22.673Z,5.88
2024-03-08T01:04:50.118Z,5.32
2024-03-08T01:07:17.551Z,4.57
2024-03-08T01:09:44.600Z,8.18
2024-03-08T01:12:12.425Z,6.45
2024-03-08T01:14:39.711Z,6.63
2024-03-08T01:17:07.138Z,7.32
2024-03-08T01:19:34.440Z,7.75
2024-03-08T01:22:01.831Z,7.03
2024-03-08T01:24:29.552Z,7.85
2024-03-08T01:26:56.957Z,8.05
2024-03-08T01:29:24.171Z,8.02
2024-03-08T01:31:53.787Z,6.65
2024-03-08T01:36:50.057Z,6.47
2024-03-08T01:39:18.418Z,4.38
2024-03-08T01:41:46.025Z,7.97
2024-03-08T01:44:16.988Z,5.50
2024-03-08T01:46:49.401Z,7.07
2024-03-08T01:49:19.522Z,7.43
2024-03-08T01:51:47.248Z,5.40
2024-03-08T01:54:17.434Z,5.03
2024-03-08T01:56:44.885Z,5.72
2024-03-08T01:59:12.032Z,4.28
2024-03-08T02:01:39.596Z,5.72
2024-03-08T02:04:08.449Z,6.15
2024-03-08T02:06:35.907Z,6.03
2024-03-08T02:09:07.240Z,8.02
2024-03-08T02:11:37.640Z,6.05
2024-03-08T02:14:07.587Z,8.82
2024-03-08T02:16:35.155Z,7.15
2024-03-08T02:19:02.314Z,7.60
2024-03-08T02:21:31.060Z,8.75
2024-03-08T02:23:58.623Z,7.97
2024-03-08T02:26:26.061Z,4.00
2024-03-08T02:28:53.094Z,8.75
2024-03-08T02:31:20.784Z,6.57
2024-03-08T02:33:48.769Z,4.18
2024-03-08T02:36:17.619Z,5.22
2024-03-08T02:38:44.873Z,6.38
2024-03-08T02:41:13.535Z,7.22
2024-03-08T02:43:40.676Z,8.20
2024-03-08T02:46:08.295Z,8.23
2024-03-08T02:48:38.070Z,8.55
2024-03-08T02:51:06.700Z,5.93
2024-03-08T02:53:33.764Z,7.97
2024-03-08T02:56:01.110Z,4.35
2024-03-08T02:58:28.339Z,7.78
2024-03-08T03:00:58.746Z,6.25
2024-03-08T03:03:25.848Z,5.93
2024-03-08T03:05:56.958Z,7.25
2024-03-08T03:08:25.011Z,7.85
2024-03-08T03:10:52.826Z,9.88
2024-03-08T03:13:20.925Z,6.65
2024-03-08T03:15:48.441Z,5.80
2024-03-08T03:18:16.945Z,7.70
2024-03-08T03:20:47.950Z,8.90
2024-03-08T03:23:21.865Z,9.05
2024-03-08T03:25:49.551Z,6.20
2024-03-08T03:28:18.995Z,8.27
2024-03-08T03:30:47.946Z,6.57
2024-03-08T03:33:16.806Z,4.47
2024-03-08T03:35:45.384Z,4.30
2024-03-08T03:38:12.804Z,6.78
2024-03-08T03:40:41.799Z,4.85
2024-03-08T03:43:11.115Z,6.45
2024-03-08T03:45:43.033Z,6.50
2024-03-08T03:48:12.533Z,7.05
2024-03-08T03:50:41.726Z,5.47
2024-03-08T03:53:10.381Z,7.55
2024-03-08T03:55:40.657Z,10.05
2024-03-08T03:58:09.119Z,5.28
2024-03-08T04:00:36.951Z,8.55
2024-03-08T04:03:06.261Z,5.65
2024-03-08T04:05:33.902Z,5.35
2024-03-08T04:08:00.933Z,8.77
2024-03-08T04:10:28.239Z,8.63
2024-03-08T04:12:55.253Z,6.10
2024-03-08T04:15:22.650Z,6.30
2024-03-08T04:17:49.871Z,7.60
2024-03-08T04:20:18.952Z,5.10
2024-03-08T04:22:48.338Z,5.53
2024-03-08T04:25:16.249Z,6.65
2024-03-08T04:27:43.471Z,7.85
2024-03-08T04:30:11.469Z,6.25
2024-03-08T04:32:39.384Z,7.68
2024-03-08T04:35:07.803Z,9.00
2024-03-08T04:37:35.379Z,6.85
2024-03-08T04:40:02.879Z,6.55
2024-03-08T04:42:31.479Z,7.05
2024-03-08T04:44:59.478Z,7.03
2024-03-08T04:47:26.971Z,8.07
2024-03-08T04:49:55.975Z,7.03
2024-03-08T04:52:23.693Z,7.07
2024-03-08T04:54:51.421Z,8.68
2024-03-08T04:57:22.721Z,7.57
2024-03-08T04:59:50.247Z,7.28
2024-03-08T05:05:02.240Z,8.23
2024-03-08T05:10:11.173Z,4.43
2024-03-08T05:12:39.991Z,6.47
2024-03-08T05:15:08.917Z,7.53
2024-03-08T05:17:41.929Z,9.07
2024-03-08T05:20:13.757Z,8.07
2024-03-08T05:22:43.797Z,11.32
2024-03-08T05:25:11.936Z,8.48
2024-03-08T05:27:39.263Z,7.63
2024-03-08T05:30:09.390Z,8.10
2024-03-08T05:32:36.924Z,7.93
2024-03-08T05:35:08.478Z,9.63
2024-03-08T05:37:45.668Z,7.75
2024-03-08T05:40:27.644Z,6.07
2024-03-08T05:42:55.699Z,9.27
2024-03-08T05:45:25.163Z,7.95
2024-03-08T05:47:56.027Z,10.05
2024-03-08T05:50:23.515Z,5.10
2024-03-08T05:52:51.864Z,6.85
2024-03-08T05:58:04.611Z,10.20
2024-03-08T06:00:32.624Z,6.90
2024-03-08T06:03:00.617Z,8.55
2024-03-08T06:05:27.810Z,9.63
2024-03-08T06:07:55.516Z,4.18
2024-03-08T06:10:33.569Z,6.78
2024-03-08T06:13:13.580Z,8.00
2024-03-08T06:15:44.772Z,9.65
2024-03-08T06:18:13.270Z,7.03
2024-03-08T06:25:54.701Z,7.60
2024-03-08T06:28:22.233Z,7.03
2024-03-08T06:30:49.371Z,7.70
2024-03-08T06:33:19.345Z,8.25
2024-03-08T06:35:46.665Z,10.82
2024-03-08T06:38:18.305Z,10.07
2024-03-08T06:40:45.407Z,9.00
2024-03-08T06:43:15.705Z,8.98
2024-03-08T06:45:51.684Z,9.30
2024-03-08T07:48:19.287Z,6.18
2024-03-08T07:50:47.697Z,9.70
2024-03-08T07:53:20.148Z,8.45
2024-03-08T07:55:53.320Z,7.85
2024-03-08T07:58:20.596Z,8.55
2024-03-08T08:00:48.044Z,5.28
2024-03-08T08:03:15.624Z,9.98
2024-03-08T08:05:44.979Z,5.78
2024-03-08T08:08:12.801Z,9.07
2024-03-08T08:11:11.728Z,8.75
2024-03-08T08:14:06.473Z,10.13
2024-03-08T08:16:34.093Z,9.02
2024-03-08T08:19:01.139Z,7.57
2024-03-08T08:21:29.005Z,8.98
2024-03-08T08:23:59.216Z,5.82
2024-03-08T08:26:35.764Z,7.10
2024-03-08T08:29:07.137Z,9.77
2024-03-08T08:31:35.019Z,6.43
2024-03-08T08:34:02.268Z,8.95
2024-03-08T08:36:31.168Z,9.25
2024-03-08T08:38:59.675Z,6.97
2024-03-08T08:41:27.908Z,8.60
2024-03-08T08:44:03.474Z,8.02
2024-03-08T08:46:42.083Z,9.77
2024-03-08T08:49:12.148Z,10.52
2024-03-08T08:51:44.464Z,7.95
2024-03-08T08:54:16.840Z,10.63
2024-03-08T08:56:57.000Z,8.13
2024-03-08T08:59:27.724Z,5.60
2024-03-08T09:01:55.389Z,8.00
2024-03-08T09:04:24.819Z,6.03
2024-03-08T09:06:55.226Z,6.68
2024-03-08T09:09:33.329Z,6.50
2024-03-08T09:12:14.628Z,9.25
2024-03-08T09:14:42.653Z,7.00
2024-03-08T09:19:41.168Z,6.88
2024-03-08T09:22:08.905Z,8.15
2024-03-08T09:24:38.878Z,9.73
2024-03-08T09:27:12.889Z,7.20
2024-03-08T09:29:40.062Z,7.40
2024-03-08T09:32:12.225Z,10.30
2024-03-08T09:34:39.458Z,10.10
2024-03-08T09:37:07.275Z,7.10
2024-03-08T09:39:35.075Z,6.35
2024-03-08T09:42:03.562Z,9.52
2024-03-08T09:44:31.253Z,8.48
2024-03-08T09:47:03.770Z,9.60
2024-03-08T09:49:31.518Z,6.88
2024-03-08T09:52:01.771Z,8.20
2024-03-08T09:54:29.633Z,6.07
2024-03-08T09:57:05.418Z,6.20
2024-03-08T09:59:38.343Z,8.35
2024-03-08T10:02:14.322Z,6.55
2024-03-08T10:04:47.073Z,8.52
2024-03-08T10:07:17.107Z,6.43
2024-03-08T10:09:51.613Z,10.07
2024-03-08T10:12:20.786Z,9.77
2024-03-08T10:14:51.105Z,5.72
2024-03-08T10:17:21.816Z,8.93
2024-03-08T10:19:56.319Z,8.70
2024-03-08T10:25:10.922Z,9.38
2024-03-08T10:27:40.895Z,7.60
2024-03-08T10:30:14.093Z,7.57
2024-03-08T10:32:42.620Z,9.20
2024-03-08T10:35:10.803Z,8.70
2024-03-08T10:37:45.446Z,6.85
2024-03-08T10:40:18.946Z,6.90
2024-03-08T10:43:13.050Z,8.90
2024-03-08T10:45:46.174Z,9.73
2024-03-08T10:48:40.171Z,9.80
2024-03-08T10:51:09.559Z,10.00
2024-03-08T10:53:43.200Z,9.93
2024-03-08T10:56:13.051Z,10.13
2024-03-08T10:58:42.326Z,8.55
2024-03-08T11:01:11.592Z,9.95
2024-03-08T11:06:44.192Z,8.82
2024-03-08T11:09:39.081Z,9.43
2024-03-08T11:12:38.672Z,9.10
2024-03-08T11:15:23.192Z,9.25
2024-03-08T11:17:52.324Z,8.93
2024-03-08T11:20:25.749Z,7.78
2024-03-08T11:23:02.340Z,8.20
2024-03-08T11:25:48.119Z,7.18
2024-03-08T11:28:18.619Z,10.00
2024-03-08T11:31:01.184Z,8.80
2024-03-08T11:33:30.592Z,5.88
2024-03-08T11:36:12.849Z,8.40
2024-03-08T11:38:56.447Z,7.72
2024-03-08T11:41:24.923Z,5.82
2024-03-08T11:44:11.465Z,7.97
2024-03-08T11:46:41.549Z,8.30
2024-03-08T11:49:21.996Z,7.05
2024-03-08T11:51:55.242Z,5.38
2024-03-08T11:54:25.746Z,7.35
2024-03-08T11:56:59.950Z,7.93
2024-03-08T11:59:31.918Z,8.75
2024-03-08T12:02:06.885Z,7.22
2024-03-08T12:04:43.578Z,8.50
2024-03-08T12:07:15.553Z,8.48
2024-03-08T12:09:48.196Z,7.05
2024-03-08T12:12:18.408Z,7.13
2024-03-08T12:14:48.843Z,5.93
2024-03-08T12:17:17.692Z,7.35
2024-03-08T12:19:48.510Z,9.00
2024-03-08T12:22:16.361Z,7.93
2024-03-08T12:24:51.913Z,7.43
2024-03-08T12:27:21.484Z,7.38
2024-03-08T12:29:52.889Z,7.85
2024-03-08T12:32:20.559Z,7.13
2024-03-08T12:34:55.913Z,7.30
2024-03-08T12:37:24.982Z,7.22
2024-03-08T12:39:57.161Z,7.45
2024-03-08T12:42:25.846Z,8.05
2024-03-08T12:44:56.486Z,7.15
2024-03-08T12:47:26.199Z,8.52
2024-03-08T12:49:55.206Z,6.40
2024-03-08T12:52:26.569Z,6.05
2024-03-08T12:54:57.089Z,9.13
2024-03-08T12:57:26.299Z,6.40
2024-03-08T12:59:56.803Z,7.68
2024-03-08T13:02:28.568Z,8.40
2024-03-08T13:04:58.969Z,7.88
2024-03-08T13:07:29.555Z,9.07
2024-03-08T13:12:53.691Z,8.23
2024-03-08T13:15:24.043Z,10.10
2024-03-08T13:17:51.690Z,8.70
2024-03-08T13:23:03.586Z,7.03
2024-03-08T13:25:32.773Z,9.88
2024-03-08T13:28:01.921Z,9.15
2024-03-08T13:30:30.291Z,7.53
2024-03-08T13:33:00.024Z,7.05
2024-03-08T13:35:28.621Z,9.88
2024-03-08T13:37:56.114Z,8.88
2024-03-08T13:40:23.960Z,10.00
2024-03-08T13:42:51.181Z,8.05
2024-03-08T13:45:24.050Z,7.90
2024-03-08T13:47:58.212Z,9.23
2024-03-08T13:50:31.438Z,5.40
2024-03-08T13:52:58.592Z,9.10
2024-03-08T13:55:28.407Z,6.47
2024-03-08T13:57:55.997Z,7.20
2024-03-08T14:00:29.734Z,8.30
2024-03-08T14:02:57.432Z,5.60
2024-03-08T14:05:24.935Z,9.95
2024-03-08T14:07:55.719Z,9.38
2024-03-08T14:10:24.762Z,9.18
2024-03-08T14:12:53.021Z,8.20
2024-03-08T14:15:21.738Z,8.80
2024-03-08T14:17:56.205Z,8.55
2024-03-08T14:20:28.173Z,8.18
2024-03-08T14:23:09.566Z,8.15
2024-03-08T14:25:38.524Z,6.32
2024-03-08T14:28:08.588Z,5.80
2024-03-08T14:30:37.043Z,8.27
2024-03-08T14:33:12.972Z,8.77
2024-03-08T14:35:44.758Z,8.10
2024-03-08T14:38:21.456Z,8.07
2024-03-08T14:40:49.458Z,7.30
2024-03-08T14:43:17.812Z,7.25
2024-03-08T14:45:49.907Z,5.07
2024-03-08T14:48:20.629Z,7.43
2024-03-08T14:50:50.230Z,5.18
2024-03-08T14:53:19.827Z,8.38
2024-03-08T14:55:48.676Z,3.85
2024-03-08T14:58:16.536Z,9.07
2024-03-08T15:00:45.007Z,7.45
2024-03-08T15:03:14.813Z,8.45
2024-03-08T15:05:48.645Z,7.63
2024-03-08T15:08:21.289Z,6.70
2024-03-08T15:10:55.804Z,8.25
2024-03-08T15:13:24.656Z,8.05
2024-03-08T15:15:58.961Z,9.85
2024-03-08T15:18:32.225Z,6.05
2024-03-08T15:20:59.847Z,9.65
2024-03-08T15:23:27.090Z,5.80
2024-03-08T15:25:54.672Z,9.82
2024-03-08T15:28:28.159Z,6.55
2024-03-08T15:30:57.162Z,6.07
2024-03-08T15:33:28.599Z,4.97
2024-03-08T15:36:04.116Z,6.95
2024-03-08T15:38:31.297Z,5.32
2024-03-08T15:40:58.710Z,6.20
2024-03-08T15:43:28.421Z,6.60
2024-03-08T15:45:59.943Z,6.00
2024-03-08T15:48:27.531Z,9.20
2024-03-08T15:50:56.640Z,8.60
2024-03-08T15:53:25.288Z,9.77
2024-03-08T15:55:52.915Z,8.13
2024-03-08T15:58:19.991Z,8.52
2024-03-08T16:00:48.506Z,9.43
2024-03-08T16:03:16.924Z,7.53
2024-03-08T16:08:17.141Z,5.78
2024-03-08T16:10:50.324Z,6.70
2024-03-08T16:13:18.835Z,6.93
2024-03-08T16:15:49.010Z,8.90
2024-03-08T16:18:22.525Z,10.27
2024-03-08T16:20:57.268Z,10.15
2024-03-08T16:23:25.942Z,9.90
2024-03-08T16:25:56.413Z,9.45
2024-03-08T16:28:27.238Z,11.40
2024-03-08T16:30:55.817Z,9.00
2024-03-08T16:33:23.816Z,9.48
2024-03-08T16:35:53.009Z,6.60
2024-03-08T16:38:25.193Z,6.88
2024-03-08T16:40:53.868Z,9.52
2024-03-08T16:43:21.184Z,5.93
2024-03-08T16:45:52.371Z,5.22
2024-03-08T16:48:20.448Z,8.68
2024-03-08T16:50:48.095Z,7.20
2024-03-08T16:53:16.229Z,9.00
2024-03-08T16:55:44.320Z,8.82
2024-03-08T16:58:16.300Z,8.23
2024-03-08T17:00:44.335Z,10.45
2024-03-08T17:03:13.932Z,10.48
2024-03-08T17:05:54.940Z,9.32
2024-03-08T17:08:23.581Z,9.70
2024-03-08T17:10:51.527Z,6.57
2024-03-08T17:13:19.981Z,11.07
2024-03-08T17:15:52.884Z,7.05
2024-03-08T17:18:23.248Z,8.70
2024-03-08T17:20:50.690Z,11.18
2024-03-08T17:23:18.019Z,9.20
2024-03-08T17:25:47.869Z,10.73
2024-03-08T17:28:28.314Z,9.95
2024-03-08T17:30:55.873Z,7.38
2024-03-08T17:33:26.186Z,8.05
2024-03-08T17:35:53.991Z,7.38
2024-03-08T17:38:23.080Z,9.32
2024-03-08T17:40:50.831Z,4.72
2024-03-08T17:43:24.843Z,10.13
2024-03-08T17:45:54.466Z,8.43
2024-03-08T17:48:22.261Z,8.48
2024-03-08T17:50:55.594Z,8.57
2024-03-08T17:53:23.174Z,10.57
2024-03-08T17:55:53.127Z,8.13
2024-03-08T17:58:21.477Z,10.48
2024-03-08T18:00:54.944Z,8.77
2024-03-08T18:03:29.426Z,10.40
2024-03-08T18:06:07.011Z,8.43
2024-03-08T18:08:35.879Z,9.85
2024-03-08T18:11:04.171Z,10.18
2024-03-08T18:13:37.096Z,6.60
2024-03-08T18:16:10.274Z,8.30
2024-03-08T18:21:42.198Z,8.95
2024-03-08T18:24:13.436Z,9.48
2024-03-08T18:26:44.004Z,9.68
2024-03-08T18:29:12.249Z,9.82
2024-03-08T18:31:42.066Z,6.95
2024-03-08T18:36:37.726Z,9.75
2024-03-08T18:39:11.557Z,9.23
2024-03-08T18:41:39.963Z,9.77
2024-03-08T18:44:07.177Z,10.57
2024-03-08T18:46:34.826Z,10.68
2024-03-08T18:49:01.831Z,7.57
2024-03-08T18:51:31.093Z,10.18
2024-03-08T18:53:58.325Z,10.30
2024-03-08T18:56:35.670Z,8.80
2024-03-08T18:59:04.371Z,9.15
2024-03-08T19:01:58.686Z,7.68
2024-03-08T19:04:29.216Z,10.10
2024-03-08T19:06:57.533Z,9.18
2024-03-08T19:09:25.002Z,9.40
2024-03-08T19:11:52.397Z,9.90
2024-03-08T19:14:20.107Z,10.10
2024-03-08T19:16:48.472Z,8.75
2024-03-08T19:19:15.885Z,9.27
2024-03-08T19:21:43.304Z,10.27
2024-03-08T19:24:12.942Z,7.60
2024-03-08T19:26:41.059Z,10.07
2024-03-08T19:29:12.902Z,10.57
2024-03-08T19:31:42.636Z,9.93
2024-03-08T19:34:10.213Z,11.55
2024-03-08T19:36:38.127Z,11.50
2024-03-08T19:39:06.592Z,10.35
2024-03-08T19:41:34.923Z,11.48
2024-03-08T19:44:04.342Z,10.15
2024-03-08T19:46:39.072Z,11.48
2024-03-08T19:49:06.881Z,11.25
2024-03-08T19:51:35.404Z,11.05
2024-03-08T19:54:03.420Z,11.75
2024-03-08T19:56:31.176Z,10.45
2024-03-08T19:58:59.571Z,12.35
2024-03-08T20:01:26.773Z,11.18
2024-03-08T20:03:54.758Z,11.52
2024-03-08T20:06:22.870Z,11.40
2024-03-08T20:08:50.592Z,11.65
2024-03-08T20:11:18.427Z,10.98
2024-03-08T20:13:48.090Z,12.57
2024-03-08T20:16:15.446Z,12.25
2024-03-08T20:18:44.225Z,12.30
2024-03-08T20:21:11.316Z,12.45
2024-03-08T20:23:40.905Z,12.27
2024-03-08T20:26:12.685Z,12.50
2024-03-08T20:28:43.788Z,11.77
2024-03-08T20:31:11.908Z,12.45
2024-03-08T20:37:11.560Z,11.10
2024-03-08T20:39:47.153Z,11.73
2024-03-08T20:42:15.315Z,12.18
2024-03-08T20:44:52.853Z,12.45
2024-03-08T20:47:23.144Z,12.40
2024-03-08T20:49:52.757Z,11.20
2024-03-08T20:52:23.322Z,11.70
2024-03-08T20:54:51.974Z,10.93
2024-03-08T20:57:20.205Z,10.40
2024-03-08T20:59:48.055Z,12.32
2024-03-08T21:02:17.591Z,12.02
2024-03-08T21:04:50.118Z,10.50
2024-03-08T21:07:19.102Z,11.10
2024-03-08T21:09:46.742Z,12.35
2024-03-08T21:12:17.830Z,12.27
2024-03-08T21:14:56.268Z,11.07
2024-03-08T21:18:11.122Z,12.35
2024-03-08T21:22:19.778Z,11.07
2024-03-08T21:25:41.453Z,14.63
2024-03-08T21:32:27.558Z,10.50
2024-03-08T21:42:12.161Z,14.25
2024-03-08T21:48:16.664Z,14.25
2024-03-08T21:51:58.826Z,14.32
2024-03-08T21:55:39.069Z,13.23
2024-03-08T22:02:25.996Z,12.65
2024-03-08T22:10:32.297Z,10.52
2024-03-08T22:13:47.677Z,9.50
2024-03-08T22:28:25.408Z,10.25
2024-03-08T22:38:59.417Z,9.85
2024-03-08T22:46:09.357Z,11.80
2024-03-08T22:55:55.643Z,12.45
2024-03-08T22:58:23.782Z,12.13
2024-03-08T23:00:57.921Z,16.13
2024-03-08T23:03:26.100Z,12.50
2024-03-08T23:05:53.793Z,11.95
2024-03-08T23:08:22.026Z,15.35
2024-03-08T23:10:52.229Z,12.55
2024-03-08T23:13:20.352Z,12.82
2024-03-08T23:19:01.308Z,14.82
2024-03-08T23:21:28.969Z,13.38
2024-03-08T23:23:58.978Z,14.30
2024-03-08T23:26:30.984Z,14.00
2024-03-08T23:29:00.137Z,16.02
2024-03-08T23:31:37.980Z,14.57
2024-03-08T23:38:29.512Z,15.27
2024-03-08T23:40:57.350Z,16.58
2024-03-08T23:43:26.722Z,16.90
2024-03-08T23:45:58.891Z,16.58
2024-03-08T23:48:27.399Z,14.45
2024-03-08T23:50:55.928Z,15.10
2024-03-08T23:53:27.036Z,16.55
2024-03-08T23:55:56.394Z,13.90
2024-03-08T23:58:24.704Z,16.73
